Time;durP1;ratioP1;P1;durP2;ratioP2;P2;SDS_P1;SDS_P2;PMS_P1;PMS_P2;Temp;Humidity;BMP_temperature;BMP_pressure;BME280_temperature;BME280_humidity;BME280_pressure;Samples;Min_cycle;Max_cycle;Signal;HPM_P1;HPM_P2
2021/12/27 05:02:44;;;;;;;15.60;7.00;;;;;;;-3.38;84.50;99438.22;4507994;31;152191;-77
2021/12/27 05:05:31;;;;;;;17.48;7.40;;;;;;;-3.38;84.50;99438.22;4481196;32;33939;-76
2021/12/27 05:08:18;;;;;;;14.02;7.12;;;;;;;-2.89;82.65;99443.56;4488816;31;35467;-77
2021/12/27 05:11:05;;;;;;;19.30;8.02;;;;;;;-2.82;78.91;99441.56;4483820;32;35808;-77
2021/12/27 05:13:51;;;;;;;19.25;7.22;;;;;;;-2.51;77.00;99437.81;4488472;32;34492;-77
2021/12/27 05:16:40;;;;;;;13.30;7.30;;;;;;;-2.81;77.24;99440.56;4496080;31;34095;-77
2021/12/27 05:19:27;;;;;;;19.58;7.82;;;;;;;-2.17;74.48;99435.41;4487654;32;35475;-77
2021/12/27 05:22:13;;;;;;;13.90;6.62;;;;;;;-1.40;72.32;99435.22;4497075;31;36043;-77
2021/12/27 05:25:00;;;;;;;18.08;7.82;;;;;;;-0.88;69.08;99426.25;4484839;32;34372;-78
2021/12/27 05:27:46;;;;;;;15.55;6.82;;;;;;;-1.90;71.81;99427.72;4476300;32;34953;-77
2021/12/27 05:30:38;;;;;;;17.60;6.70;;;;;;;-0.85;68.65;99425.78;4492717;32;34671;-77
2021/12/27 05:33:25;;;;;;;14.00;6.93;;;;;;;-0.91;68.29;99433.78;4485318;32;35045;-77
2021/12/27 05:36:12;;;;;;;13.57;6.68;;;;;;;-0.72;68.00;99426.31;4491703;31;35434;-77
2021/12/27 05:38:59;;;;;;;14.80;7.07;;;;;;;-1.16;68.23;99426.03;4497131;31;34284;-77
2021/12/27 05:41:46;;;;;;;12.37;6.15;;;;;;;-0.43;66.82;99425.44;4495713;32;34709;-77
2021/12/27 05:44:33;;;;;;;16.45;7.70;;;;;;;-0.16;65.10;99415.66;4492203;32;34949;-77
2021/12/27 05:47:19;;;;;;;17.60;7.20;;;;;;;-0.14;64.85;99429.69;4485278;32;35413;-75
2021/12/27 05:50:07;;;;;;;16.95;8.52;;;;;;;-0.08;65.27;99423.31;4496226;32;35105;-77
2021/12/27 05:52:53;;;;;;;16.92;9.27;;;;;;;-0.36;66.46;99423.41;4492652;31;35529;-77
2021/12/27 05:55:40;;;;;;;19.05;9.07;;;;;;;-0.53;67.15;99418.03;4496342;32;36005;-77
2021/12/27 05:58:27;;;;;;;14.77;8.02;;;;;;;-0.63;68.22;99423.22;4496449;32;34469;-77
2021/12/27 06:01:13;;;;;;;16.33;8.35;;;;;;;-0.41;67.35;99426.03;4483698;31;34214;-77
2021/12/27 06:04:00;;;;;;;18.95;9.23;;;;;;;-1.64;70.67;99423.72;4493692;31;35570;-77
2021/12/27 06:06:46;;;;;;;17.77;8.95;;;;;;;-2.68;77.74;99418.88;4495073;31;35031;-77
2021/12/27 06:09:32;;;;;;;19.42;8.52;;;;;;;-2.05;75.81;99409.38;4485292;32;34814;-77
2021/12/27 06:12:19;;;;;;;17.05;7.97;;;;;;;-1.91;75.37;99413.44;4492565;32;34312;-77
2021/12/27 06:15:06;;;;;;;18.62;8.80;;;;;;;-1.58;73.98;99407.47;4463880;32;34664;-77
2021/12/27 06:17:53;;;;;;;19.15;9.07;;;;;;;-2.04;75.40;99408.34;4476835;32;35867;-77
2021/12/27 06:20:40;;;;;;;20.75;9.07;;;;;;;-2.02;76.41;99417.00;4474003;32;33989;-77
2021/12/27 06:23:26;;;;;;;19.58;9.40;;;;;;;-2.13;76.56;99404.38;4484842;32;35135;-78
2021/12/27 06:26:12;;;;;;;23.50;10.63;;;;;;;-2.26;77.21;99406.22;4470824;32;34593;-78
2021/12/27 06:28:59;;;;;;;19.87;9.80;;;;;;;-2.04;77.03;99409.16;4471384;32;34874;-77
2021/12/27 06:31:45;;;;;;;21.62;9.05;;;;;;;-1.72;75.49;99410.66;4482497;32;34610;-78
2021/12/27 06:34:31;;;;;;;24.70;11.30;;;;;;;-1.78;75.16;99416.97;4467385;32;34130;-76
2021/12/27 06:37:19;;;;;;;19.30;8.82;;;;;;;-3.04;80.48;99420.66;4483301;32;34674;-77
2021/12/27 06:40:06;;;;;;;17.77;8.80;;;;;;;-3.54;82.39;99420.06;4474724;31;36002;-77
2021/12/27 06:42:53;;;;;;;16.58;7.43;;;;;;;-2.43;78.87;99401.78;4464030;32;34991;-78
2021/12/27 06:45:39;;;;;;;19.83;7.78;;;;;;;-2.40;77.71;99399.44;4480624;32;34108;-77
2021/12/27 06:48:29;;;;;;;16.95;8.13;;;;;;;-2.58;77.78;99397.69;4484386;32;35519;-78
2021/12/27 06:51:15;;;;;;;15.57;7.78;;;;;;;-1.75;74.54;99405.75;4473176;32;35899;-77
2021/12/27 06:54:03;;;;;;;17.05;7.82;;;;;;;-2.71;78.25;99403.25;4476516;32;34580;-77
2021/12/27 06:56:51;;;;;;;18.05;8.02;;;;;;;-2.77;78.70;99404.97;4477591;32;33828;-78
2021/12/27 06:59:38;;;;;;;18.00;8.70;;;;;;;-2.24;76.93;99391.78;4481127;32;34634;-77
2021/12/27 07:02:25;;;;;;;21.95;8.40;;;;;;;-1.28;72.78;99397.56;4477746;32;35150;-78
2021/12/27 07:05:13;;;;;;;20.75;8.98;;;;;;;-1.39;72.35;99404.63;4477160;32;34590;-77
2021/12/27 07:08:02;;;;;;;20.25;8.68;;;;;;;-1.72;73.84;99407.97;4467266;32;34094;-77
2021/12/27 07:10:51;;;;;;;16.42;8.00;;;;;;;-1.34;71.76;99401.19;4477541;32;35490;-78
2021/12/27 07:20:56;;;;;;;17.90;7.82;;;;;;;-1.72;73.77;99399.91;4505176;31;141046;-77
2021/12/27 07:23:44;;;;;;;18.95;9.25;;;;;;;-1.72;73.77;99399.91;4494605;31;35418;-77
2021/12/27 07:26:31;;;;;;;18.65;9.55;;;;;;;-1.87;74.54;99397.72;4473487;31;35439;-78
2021/12/27 07:29:17;;;;;;;21.52;9.35;;;;;;;-1.91;74.77;99409.97;4484677;31;34626;-77
2021/12/27 07:32:04;;;;;;;18.65;8.90;;;;;;;-1.97;74.26;99413.59;4487942;31;34351;-78
2021/12/27 07:34:56;;;;;;;23.20;10.45;;;;;;;-1.28;71.43;99411.00;4493366;31;35095;-78
2021/12/27 07:37:43;;;;;;;22.55;10.15;;;;;;;-1.21;70.09;99411.69;4486070;31;34540;-77
2021/12/27 07:40:32;;;;;;;27.13;11.12;;;;;;;-0.77;67.99;99411.94;4492468;31;35017;-78
2021/12/27 07:43:18;;;;;;;29.70;11.63;;;;;;;-0.79;67.23;99406.00;4483754;32;35360;-77
2021/12/27 07:46:04;;;;;;;26.10;11.90;;;;;;;-0.08;64.60;99407.16;4486612;31;35075;-78
2021/12/27 07:48:51;;;;;;;30.52;12.30;;;;;;;-0.16;65.10;99412.97;4484178;31;34133;-78
2021/12/27 07:51:38;;;;;;;32.63;13.65;;;;;;;0.10;63.94;99399.87;4483045;32;34655;-78
2021/12/27 07:54:27;;;;;;;29.85;12.90;;;;;;;0.48;62.28;99409.00;4468110;32;35257;-78
2021/12/27 07:57:14;;;;;;;29.48;12.77;;;;;;;0.37;61.42;99405.34;4491553;32;36716;-78
2021/12/27 08:00:01;;;;;;;28.85;12.82;;;;;;;0.38;61.38;99405.09;4472331;32;34211;-78
2021/12/27 08:02:47;;;;;;;26.00;12.70;;;;;;;0.97;60.17;99399.06;4484318;31;34925;-79
2021/12/27 08:05:36;;;;;;;28.23;11.75;;;;;;;0.94;59.81;99398.72;4482122;31;35523;-78
2021/12/27 08:08:23;;;;;;;32.15;12.48;;;;;;;0.05;62.24;99395.22;4486166;31;34370;-78
2021/12/27 08:11:09;;;;;;;40.17;17.42;;;;;;;0.56;60.42;99403.16;4492758;32;34957;-78
2021/12/27 08:13:55;;;;;;;33.45;15.77;;;;;;;-0.16;61.52;99396.00;4485155;32;34672;-77
2021/12/27 08:16:42;;;;;;;32.28;14.18;;;;;;;-0.69;62.59;99388.16;4492931;31;34134;-77
2021/12/27 08:19:28;;;;;;;28.58;13.77;;;;;;;-1.07;63.99;99394.22;4484950;32;35112;-77
2021/12/27 08:22:14;;;;;;;27.08;12.80;;;;;;;0.50;59.75;99385.31;4486466;32;35489;-77
2021/12/27 08:25:07;;;;;;;29.77;13.30;;;;;;;0.97;56.99;99388.28;4474431;32;34965;-78
2021/12/27 08:27:53;;;;;;;44.85;17.42;;;;;;;0.95;56.75;99390.41;4492749;32;35331;-78
2021/12/27 08:30:40;;;;;;;45.05;18.35;;;;;;;1.49;54.17;99378.75;4476038;31;33866;-78
2021/12/27 08:33:26;;;;;;;42.55;18.65;;;;;;;1.44;54.40;99381.41;4468469;31;34025;-78
2021/12/27 08:36:13;;;;;;;40.03;18.27;;;;;;;0.43;57.30;99388.19;4467312;32;34983;-78
2021/12/27 08:38:59;;;;;;;30.27;13.73;;;;;;;1.16;56.84;99391.41;4466191;32;34452;-80
2021/12/27 08:41:46;;;;;;;20.50;9.20;;;;;;;1.83;54.84;99397.38;4462916;32;34698;-80
2021/12/27 08:44:33;;;;;;;13.57;6.55;;;;;;;1.46;54.86;99390.06;4451034;32;34128;-80
2021/12/27 08:47:19;;;;;;;12.37;6.18;;;;;;;1.50;51.75;99392.00;4470376;32;34707;-80
2021/12/27 08:50:07;;;;;;;13.05;6.15;;;;;;;2.01;50.82;99400.47;4482992;32;34842;-80
2021/12/27 08:52:53;;;;;;;18.85;7.15;;;;;;;1.92;50.94;99406.63;4465573;32;33760;-80
2021/12/27 08:55:42;;;;;;;14.60;6.50;;;;;;;2.23;49.74;99404.94;4479844;31;34527;-79
2021/12/27 08:58:28;;;;;;;15.02;6.55;;;;;;;2.42;48.85;99397.19;4462037;32;34955;-79
2021/12/27 09:01:14;;;;;;;14.25;6.20;;;;;;;2.22;47.36;99398.72;4453829;32;34092;-80
2021/12/27 09:04:00;;;;;;;11.88;6.57;;;;;;;2.01;48.73;99405.06;4475338;32;34444;-81
2021/12/27 09:06:47;;;;;;;14.65;6.05;;;;;;;2.33;47.11;99396.06;4475429;32;34608;-80
2021/12/27 09:09:33;;;;;;;12.68;6.20;;;;;;;2.06;47.21;99394.28;4470061;32;35895;-81
2021/12/27 09:12:20;;;;;;;13.27;5.95;;;;;;;2.14;48.26;99403.81;4480921;32;34689;-79
2021/12/27 09:15:07;;;;;;;14.82;6.53;;;;;;;2.43;47.78;99398.81;4474656;32;34195;-78
2021/12/27 09:17:54;;;;;;;12.65;5.87;;;;;;;2.52;46.61;99391.84;4476533;31;34613;-79
2021/12/27 09:20:40;;;;;;;13.68;5.85;;;;;;;2.51;46.27;99395.62;4454562;32;34967;-79
2021/12/27 09:23:30;;;;;;;10.57;5.97;;;;;;;2.48;46.94;99398.84;4451644;31;34153;-79
2021/12/27 09:26:19;;;;;;;15.80;7.12;;;;;;;2.05;46.90;99397.25;4462644;31;34095;-76
2021/12/27 09:29:07;;;;;;;13.35;5.78;;;;;;;2.45;46.38;99396.69;4448341;32;34108;-77
2021/12/27 09:31:53;;;;;;;11.18;5.35;;;;;;;2.44;46.54;99392.34;4465317;32;35641;-75
2021/12/27 09:34:40;;;;;;;11.05;5.03;;;;;;;2.32;44.73;99381.72;4466156;32;35510;-76
2021/12/27 09:37:26;;;;;;;12.27;5.07;;;;;;;2.03;44.15;99381.31;4472651;31;34136;-76
2021/12/27 09:40:16;;;;;;;12.25;5.22;;;;;;;2.13;43.21;99375.94;4481562;32;34620;-79
2021/12/27 09:43:03;;;;;;;10.07;4.40;;;;;;;2.59;42.25;99373.47;4464397;31;34797;-79
2021/12/27 09:45:50;;;;;;;12.50;4.85;;;;;;;2.48;43.26;99369.91;4471965;32;35453;-80
2021/12/27 09:48:36;;;;;;;10.48;5.00;;;;;;;2.64;42.36;99365.34;4473100;32;35018;-79
2021/12/27 09:51:23;;;;;;;10.60;4.50;;;;;;;2.55;41.89;99363.44;4463725;32;34329;-79
2021/12/27 09:54:10;;;;;;;10.00;4.82;;;;;;;2.76;42.69;99364.31;4469771;32;34678;-78
2021/12/27 09:56:56;;;;;;;11.45;5.28;;;;;;;3.01;41.62;99358.97;4458473;32;34500;-78
2021/12/27 09:59:44;;;;;;;10.25;4.62;;;;;;;3.07;40.58;99357.88;4474097;32;34207;-77
2021/12/27 10:02:39;;;;;;;11.07;5.30;;;;;;;2.95;40.59;99351.91;4480381;32;34612;-77
2021/12/27 10:05:29;;;;;;;11.88;5.53;;;;;;;2.83;41.10;99351.34;4466772;32;34573;-78
2021/12/27 10:08:18;;;;;;;8.00;3.95;;;;;;;3.24;39.89;99356.84;4465920;32;34023;-78
2021/12/27 10:11:04;;;;;;;11.30;4.93;;;;;;;2.24;41.06;99357.91;4476480;32;35042;-77
2021/12/27 10:14:08;;;;;;;8.55;4.57;;;;;;;2.66;42.11;99352.38;4464736;32;36101;-78
2021/12/27 10:17:05;;;;;;;11.32;5.22;;;;;;;1.95;43.19;99355.59;4479724;31;35661;-78
2021/12/27 10:19:53;;;;;;;11.90;5.05;;;;;;;2.84;42.15;99353.78;4460894;32;35400;-78
2021/12/27 10:22:42;;;;;;;12.73;5.30;;;;;;;2.81;39.57;99346.19;4463775;31;33872;-78
2021/12/27 10:25:29;;;;;;;11.88;5.45;;;;;;;2.69;41.06;99349.16;4464186;32;34589;-78
2021/12/27 10:28:15;;;;;;;9.95;5.15;;;;;;;1.04;42.60;99352.97;4477127;32;36153;-77
2021/12/27 10:31:03;;;;;;;12.02;5.12;;;;;;;2.23;40.64;99340.88;4469393;32;34577;-78
2021/12/27 10:33:49;;;;;;;12.93;5.10;;;;;;;2.32;39.73;99343.06;4465529;32;35128;-78
2021/12/27 10:36:35;;;;;;;12.23;4.60;;;;;;;0.66;42.56;99360.16;4477049;31;35472;-78
2021/12/27 10:39:22;;;;;;;10.95;5.20;;;;;;;0.43;43.03;99351.25;4476623;31;33399;-78
2021/12/27 10:42:09;;;;;;;10.60;5.05;;;;;;;1.90;40.52;99357.44;4464647;32;34430;-78
2021/12/27 10:44:58;;;;;;;11.27;6.05;;;;;;;2.22;40.07;99355.47;4463404;32;33987;-78
2021/12/27 10:47:49;;;;;;;11.60;4.45;;;;;;;1.91;40.82;99350.97;4477510;31;34614;-78
2021/12/27 10:50:37;;;;;;;12.23;4.93;;;;;;;1.94;39.92;99347.75;4478965;31;34950;-79
2021/12/27 10:53:24;;;;;;;11.77;5.45;;;;;;;2.76;40.58;99342.66;4468271;32;33271;-79
2021/12/27 10:56:11;;;;;;;11.18;5.53;;;;;;;3.17;39.67;99349.00;4455148;31;33633;-78
2021/12/27 10:59:00;;;;;;;14.27;7.00;;;;;;;3.39;39.20;99348.75;4458003;31;34526;-80
2021/12/27 11:01:47;;;;;;;14.85;6.43;;;;;;;2.58;40.77;99338.56;4470760;31;34911;-80
2021/12/27 11:04:33;;;;;;;14.00;6.50;;;;;;;2.43;40.52;99342.84;4478724;31;35145;-80
2021/12/27 11:07:20;;;;;;;12.98;6.18;;;;;;;2.17;40.86;99335.72;4477344;32;34124;-80
2021/12/27 11:10:06;;;;;;;12.70;6.55;;;;;;;1.88;41.78;99328.00;4471032;32;34592;-80
2021/12/27 11:12:53;;;;;;;14.82;6.15;;;;;;;2.52;41.16;99326.91;4465829;32;34629;-80
2021/12/27 11:15:42;;;;;;;14.77;6.95;;;;;;;2.98;39.68;99332.44;4471781;31;34497;-80
2021/12/27 11:18:28;;;;;;;14.32;6.78;;;;;;;1.70;42.14;99328.41;4472451;31;33741;-80
2021/12/27 11:21:22;;;;;;;17.80;9.35;;;;;;;1.99;41.98;99332.38;4468940;31;35468;-80
2021/12/27 11:24:11;;;;;;;16.58;6.85;;;;;;;1.36;43.19;99336.78;4472370;32;34585;-81
2021/12/27 11:27:11;;;;;;;12.85;6.10;;;;;;;1.42;43.39;99319.56;4466553;31;34951;-81
2021/12/27 11:30:09;;;;;;;13.62;6.93;;;;;;;1.49;42.83;99319.34;4477357;31;34792;-81
2021/12/27 11:33:05;;;;;;;11.98;5.57;;;;;;;1.32;43.81;99314.09;4473950;31;36237;-81
2021/12/27 11:35:55;;;;;;;12.52;5.25;;;;;;;0.90;44.09;99323.72;4456013;32;34889;-81
2021/12/27 11:38:43;;;;;;;10.80;5.25;;;;;;;1.39;43.41;99320.09;4469094;32;35181;-82
2021/12/27 11:41:32;;;;;;;12.55;5.72;;;;;;;1.09;43.16;99310.69;4453693;32;34174;-81
2021/12/27 11:44:32;;;;;;;14.57;6.20;;;;;;;0.77;44.46;99316.03;4458401;31;35466;-80
2021/12/27 11:47:24;;;;;;;12.30;6.10;;;;;;;1.11;44.90;99313.09;4459925;31;35899;-81
2021/12/27 11:50:14;;;;;;;12.52;6.20;;;;;;;1.55;43.80;99302.94;4473081;31;35969;-80
2021/12/27 11:53:06;;;;;;;14.50;7.18;;;;;;;0.74;46.11;99305.78;4454516;31;35289;-80
2021/12/27 11:55:52;;;;;;;15.82;6.93;;;;;;;0.98;46.53;99305.44;4468836;31;34346;-80
2021/12/27 11:58:45;;;;;;;15.27;7.60;;;;;;;0.76;47.15;99302.81;4462447;31;35047;-80
2021/12/27 12:01:31;;;;;;;16.42;7.70;;;;;;;0.53;48.54;99296.62;4461309;32;35422;-80
2021/12/27 12:04:44;;;;;;;18.02;7.87;;;;;;;0.70;48.63;99301.94;4472151;31;34161;-81
2021/12/27 12:07:33;;;;;;;16.08;7.05;;;;;;;1.21;47.56;99291.59;4469477;32;33304;-81
2021/12/27 12:10:21;;;;;;;14.85;7.60;;;;;;;0.71;48.13;99290.06;4472141;31;35966;-80
2021/12/27 12:13:19;;;;;;;14.15;6.93;;;;;;;1.48;46.52;99290.72;4469475;32;34169;-81
2021/12/27 12:16:19;;;;;;;15.07;6.97;;;;;;;1.00;47.14;99284.44;4475394;31;33669;-81
2021/12/27 12:19:09;;;;;;;17.42;8.77;;;;;;;0.96;46.90;99283.31;4470328;31;35509;-80
2021/12/27 12:21:56;;;;;;;17.63;8.33;;;;;;;1.75;46.03;99269.03;4453654;31;35905;-80
2021/12/27 12:24:42;;;;;;;17.70;7.28;;;;;;;1.52;46.26;99270.25;4477684;32;35152;-80
2021/12/27 12:27:31;;;;;;;20.85;11.35;;;;;;;1.51;46.37;99268.63;4453439;32;33838;-80
2021/12/27 12:30:17;;;;;;;20.75;7.97;;;;;;;0.29;48.89;99269.16;4455819;32;34525;-80
2021/12/27 12:33:15;;;;;;;16.40;7.25;;;;;;;0.97;48.49;99260.63;4473128;31;35611;-79
2021/12/27 12:36:05;;;;;;;14.68;6.75;;;;;;;0.62;48.69;99260.06;4471473;32;35368;-79
2021/12/27 12:38:55;;;;;;;22.92;10.20;;;;;;;1.27;47.66;99252.78;4477924;31;34175;-79
2021/12/27 12:41:44;;;;;;;24.00;10.40;;;;;;;1.83;47.33;99263.13;4463907;31;35508;-79
2021/12/27 12:44:30;;;;;;;82.78;28.98;;;;;;;0.76;49.13;99257.78;4467316;32;35000;-78
2021/12/27 12:47:17;;;;;;;37.60;13.30;;;;;;;0.02;49.78;99271.00;4474954;32;34509;-79
2021/12/27 12:50:21;;;;;;;35.85;14.55;;;;;;;0.07;49.74;99263.78;4456443;31;34237;-78
2021/12/27 12:53:09;;;;;;;30.98;12.80;;;;;;;-0.32;51.67;99273.78;4471622;31;35483;-80
2021/12/27 12:56:02;;;;;;;18.37;8.25;;;;;;;0.35;51.21;99264.66;4472914;31;34603;-77
2021/12/27 12:58:48;;;;;;;19.45;8.70;;;;;;;0.45;50.31;99270.94;4467905;31;34157;-76
2021/12/27 13:01:35;;;;;;;23.98;12.35;;;;;;;0.35;51.39;99268.16;4477065;31;33681;-76
2021/12/27 13:04:21;;;;;;;19.42;9.75;;;;;;;0.05;51.63;99268.59;4479949;31;35314;-76
2021/12/27 13:07:13;;;;;;;24.23;10.38;;;;;;;0.19;51.18;99256.38;4468563;31;34491;-76
2021/12/27 13:10:00;;;;;;;17.10;6.90;;;;;;;0.75;50.27;99253.44;4472416;31;33465;-76
2021/12/27 13:12:47;;;;;;;17.08;8.45;;;;;;;1.08;48.88;99254.25;4470588;32;34192;-75
2021/12/27 13:15:36;;;;;;;16.50;6.72;;;;;;;0.30;51.44;99254.63;4479855;31;34234;-76
2021/12/27 13:18:41;;;;;;;12.88;6.75;;;;;;;0.34;51.22;99257.59;4459787;31;33899;-76
2021/12/27 13:21:27;;;;;;;15.52;7.40;;;;;;;0.53;51.00;99252.69;4470867;31;35063;-75
2021/12/27 13:24:13;;;;;;;14.30;6.32;;;;;;;1.02;49.41;99250.69;4474557;32;33759;-75
2021/12/27 13:27:02;;;;;;;13.35;6.57;;;;;;;0.84;49.56;99253.81;4469345;32;35931;-76
2021/12/27 13:30:09;;;;;;;22.67;6.68;;;;;;;0.98;49.36;99246.91;4471748;32;34959;-75
2021/12/27 13:32:55;;;;;;;14.10;6.53;;;;;;;1.78;48.03;99247.69;4460097;32;34283;-76
2021/12/27 13:35:43;;;;;;;12.63;6.35;;;;;;;1.35;47.95;99248.78;4479305;32;33799;-75
2021/12/27 13:38:42;;;;;;;14.40;5.70;;;;;;;1.79;47.16;99251.19;4472075;32;34653;-75
2021/12/27 13:41:31;;;;;;;13.32;6.40;;;;;;;1.48;47.75;99258.31;4466272;32;34574;-75
2021/12/27 13:44:32;;;;;;;16.58;6.37;;;;;;;0.34;50.63;99268.38;4477336;32;34205;-75
2021/12/27 13:47:19;;;;;;;13.90;6.57;;;;;;;0.93;49.76;99257.66;4470409;32;33878;-75
2021/12/27 13:50:06;;;;;;;12.00;6.47;;;;;;;0.73;50.59;99254.78;4469204;32;35240;-75
2021/12/27 13:52:53;;;;;;;13.43;5.85;;;;;;;0.53;50.89;99250.00;4472979;32;33533;-75
2021/12/27 13:55:41;;;;;;;17.45;5.85;;;;;;;1.06;49.40;99243.72;4473148;32;34504;-75
2021/12/27 13:58:28;;;;;;;14.77;6.85;;;;;;;1.17;47.55;99250.03;4471428;32;34141;-75
2021/12/27 14:01:19;;;;;;;85.97;35.30;;;;;;;0.85;49.19;99253.56;4475843;31;34601;-75
2021/12/27 14:04:18;;;;;;;64.03;29.05;;;;;;;1.39;48.44;99251.78;4471036;32;34796;-75
2021/12/27 14:07:21;;;;;;;44.88;20.40;;;;;;;0.62;50.61;99257.38;4471064;32;34575;-75
2021/12/27 14:10:08;;;;;;;132.70;49.25;;;;;;;0.17;50.71;99271.16;4458322;31;34306;-75
2021/12/27 14:13:00;;;;;;;101.55;36.90;;;;;;;0.51;50.87;99265.59;4458796;31;34643;-75
2021/12/27 14:15:46;;;;;;;59.88;27.50;;;;;;;0.73;50.35;99262.88;4456940;31;35010;-75
2021/12/27 14:18:33;;;;;;;20.05;9.57;;;;;;;0.39;51.55;99263.88;4469835;32;34562;-74
2021/12/27 14:21:19;;;;;;;35.53;8.70;;;;;;;0.71;50.59;99262.31;4461320;32;35066;-75
2021/12/27 14:24:07;;;;;;;20.90;8.85;;;;;;;0.92;50.27;99255.22;4478903;32;35563;-75
2021/12/27 14:26:54;;;;;;;30.60;15.40;;;;;;;0.95;50.50;99257.41;4470380;32;34680;-75
2021/12/27 14:29:41;;;;;;;32.38;16.27;;;;;;;1.82;48.99;99255.25;4446402;31;34301;-75
2021/12/27 14:32:27;;;;;;;18.83;9.02;;;;;;;0.89;50.17;99251.97;4456604;32;34216;-75
2021/12/27 14:35:41;;;;;;;16.23;8.43;;;;;;;1.38;49.13;99248.28;4457952;32;33894;-75
2021/12/27 14:38:28;;;;;;;24.50;10.27;;;;;;;1.53;48.19;99245.66;4457195;31;35560;-74
2021/12/27 14:41:17;;;;;;;19.80;9.82;;;;;;;0.92;49.57;99256.03;4478196;32;35179;-75
2021/12/27 14:44:04;;;;;;;18.50;9.82;;;;;;;0.94;50.04;99256.59;4469490;32;35656;-75
2021/12/27 14:46:50;;;;;;;25.37;11.43;;;;;;;1.91;48.05;99251.81;4473639;32;34763;-75
2021/12/27 14:49:37;;;;;;;18.55;9.45;;;;;;;0.60;50.61;99239.84;4471287;32;35893;-75
2021/12/27 14:52:24;;;;;;;19.65;8.75;;;;;;;1.32;49.04;99242.03;4471896;32;34166;-75
2021/12/27 14:55:27;;;;;;;19.10;9.57;;;;;;;1.36;49.04;99234.22;4480385;31;34127;-75
2021/12/27 14:58:13;;;;;;;14.35;7.55;;;;;;;1.58;48.53;99234.91;4472046;32;36659;-75
2021/12/27 15:01:06;;;;;;;17.35;8.02;;;;;;;1.35;48.86;99238.81;4449689;31;34458;-75
2021/12/27 15:03:52;;;;;;;17.83;8.60;;;;;;;2.17;46.80;99243.81;4469664;32;35447;-75
2021/12/27 15:06:40;;;;;;;19.10;9.35;;;;;;;2.01;47.05;99245.63;4469288;32;35155;-75
2021/12/27 15:09:27;;;;;;;18.50;8.40;;;;;;;1.53;48.27;99240.25;4459419;31;34571;-75
2021/12/27 15:12:13;;;;;;;18.77;8.25;;;;;;;1.92;47.18;99233.72;4454044;32;34533;-75
2021/12/27 15:15:00;;;;;;;18.70;8.32;;;;;;;1.49;47.77;99241.06;4467260;31;34514;-74
2021/12/27 15:17:52;;;;;;;18.08;9.10;;;;;;;0.94;49.50;99244.97;4469858;32;34147;-74
2021/12/27 15:20:38;;;;;;;21.17;8.68;;;;;;;0.88;49.85;99252.19;4454942;32;34190;-75
2021/12/27 15:23:24;;;;;;;23.35;8.68;;;;;;;1.63;48.68;99249.50;4476597;32;36028;-75
2021/12/27 15:26:11;;;;;;;18.40;8.30;;;;;;;2.19;47.17;99247.88;4479519;31;34968;-75
2021/12/27 15:28:59;;;;;;;14.90;7.50;;;;;;;1.55;48.26;99258.91;4457083;31;34097;-75
2021/12/27 15:31:45;;;;;;;15.15;7.37;;;;;;;1.47;48.00;99259.41;4457291;31;34692;-74
2021/12/27 15:34:32;;;;;;;19.12;8.00;;;;;;;1.61;48.02;99257.88;4466299;32;34997;-74
2021/12/27 15:37:18;;;;;;;15.50;7.80;;;;;;;2.50;46.01;99253.34;4458281;32;34295;-74
2021/12/27 15:40:06;;;;;;;17.85;8.82;;;;;;;3.02;45.48;99257.75;4456682;32;34179;-75
2021/12/27 15:42:55;;;;;;;18.70;8.93;;;;;;;2.79;44.95;99250.16;4456110;32;36098;-75
2021/12/27 15:45:41;;;;;;;17.98;8.57;;;;;;;3.29;44.76;99248.53;4479940;32;35004;-75
2021/12/27 15:48:28;;;;;;;17.30;8.73;;;;;;;2.77;43.92;99246.91;4460037;32;35925;-75
2021/12/27 15:51:15;;;;;;;19.85;9.55;;;;;;;2.76;44.34;99250.69;4471386;32;34079;-75
2021/12/27 15:54:02;;;;;;;20.33;9.93;;;;;;;3.21;43.57;99258.00;4478426;32;34639;-76
2021/12/27 15:56:48;;;;;;;17.60;8.95;;;;;;;3.33;43.78;99255.00;4464974;31;34536;-77
2021/12/27 15:59:34;;;;;;;21.67;10.00;;;;;;;3.42;44.02;99256.09;4472593;31;35072;-77
2021/12/27 16:02:21;;;;;;;20.67;11.20;;;;;;;3.43;44.32;99254.19;4478521;31;33660;-77
2021/12/27 16:05:08;;;;;;;33.10;17.33;;;;;;;2.01;46.67;99261.84;4477719;31;35458;-76
2021/12/27 16:07:54;;;;;;;23.15;11.93;;;;;;;1.61;48.13;99270.56;4461130;32;34924;-77
2021/12/27 16:10:41;;;;;;;60.12;28.05;;;;;;;1.31;49.07;99274.69;4470358;32;34575;-77
2021/12/27 16:13:30;;;;;;;49.78;22.75;;;;;;;0.89;50.69;99268.16;4468603;32;34137;-77
2021/12/27 16:16:17;;;;;;;38.90;18.92;;;;;;;0.99;50.41;99261.19;4471899;32;34353;-77
2021/12/27 16:19:04;;;;;;;42.88;21.90;;;;;;;1.97;48.82;99266.16;4469074;32;34878;-77
2021/12/27 16:21:50;;;;;;;31.48;15.57;;;;;;;0.63;50.65;99269.78;4479713;31;35440;-76
2021/12/27 16:24:40;;;;;;;26.20;13.62;;;;;;;1.64;48.55;99257.34;4471382;32;35152;-77
2021/12/27 16:27:27;;;;;;;28.38;13.30;;;;;;;2.36;46.92;99250.38;4460322;32;33394;-78
2021/12/27 16:30:17;;;;;;;19.95;9.98;;;;;;;2.83;46.73;99248.53;4462098;32;34619;-77
2021/12/27 16:33:06;;;;;;;20.98;10.40;;;;;;;2.85;45.92;99249.91;4469495;32;34725;-77
2021/12/27 16:35:55;;;;;;;20.80;9.70;;;;;;;2.99;45.91;99244.75;4467099;31;34184;-77
2021/12/27 16:38:42;;;;;;;17.58;8.93;;;;;;;3.10;45.88;99240.13;4469529;32;35509;-77
2021/12/27 16:41:29;;;;;;;20.42;8.77;;;;;;;3.01;45.35;99242.59;4478406;31;35948;-78
2021/12/27 16:44:16;;;;;;;18.92;9.15;;;;;;;3.13;45.43;99240.44;4477892;32;34181;-77
2021/12/27 16:47:03;;;;;;;19.42;9.85;;;;;;;3.33;45.59;99241.47;4470603;32;34100;-76
2021/12/27 16:49:50;;;;;;;18.73;9.65;;;;;;;3.49;43.50;99253.09;4477551;32;34610;-75
2021/12/27 16:52:39;;;;;;;25.95;12.52;;;;;;;3.35;43.84;99247.44;4459181;32;34707;-75
2021/12/27 16:55:26;;;;;;;45.03;17.73;;;;;;;3.30;44.33;99250.97;4478966;31;34410;-75
2021/12/27 16:58:13;;;;;;;121.70;40.95;;;;;;;3.20;45.23;99250.16;4469796;32;34230;-75
2021/12/27 17:01:00;;;;;;;198.62;61.15;;;;;;;3.27;45.86;99250.69;4446983;32;35175;-75
2021/12/27 17:03:47;;;;;;;149.65;50.80;;;;;;;3.21;45.93;99254.50;4458450;31;34601;-75
2021/12/27 17:06:33;;;;;;;171.00;58.25;;;;;;;3.06;46.96;99256.13;4464963;32;34222;-76
2021/12/27 17:09:20;;;;;;;193.93;69.37;;;;;;;3.06;47.37;99261.53;4475635;31;35058;-75
2021/12/27 17:12:11;;;;;;;130.90;51.92;;;;;;;3.00;47.67;99264.53;4472650;32;34523;-75
2021/12/27 17:14:58;;;;;;;153.12;62.80;;;;;;;2.79;47.91;99267.22;4473469;31;34823;-75
2021/12/27 17:17:44;;;;;;;98.78;38.53;;;;;;;2.68;48.43;99279.09;4466101;31;34248;-75
2021/12/27 17:20:31;;;;;;;80.62;33.90;;;;;;;2.58;49.64;99289.88;4476694;31;34129;-75
2021/12/27 17:23:19;;;;;;;80.80;34.28;;;;;;;2.47;50.23;99287.13;4477606;32;34371;-75
2021/12/27 17:26:10;;;;;;;73.18;31.73;;;;;;;2.16;52.08;99283.53;4468187;32;36551;-76
2021/12/27 17:28:58;;;;;;;66.40;30.80;;;;;;;2.65;51.11;99283.16;4467614;32;35414;-76
2021/12/27 17:31:44;;;;;;;64.03;29.15;;;;;;;2.67;50.76;99283.66;4473407;32;35182;-76
2021/12/27 17:34:31;;;;;;;70.55;32.08;;;;;;;2.82;50.87;99285.63;4458576;32;34067;-76
2021/12/27 17:37:17;;;;;;;69.60;31.08;;;;;;;1.92;51.97;99285.03;4468767;32;35620;-76
2021/12/27 17:40:07;;;;;;;65.97;32.83;;;;;;;2.69;50.90;99284.22;4478415;32;35282;-76
2021/12/27 17:42:53;;;;;;;71.35;33.30;;;;;;;2.66;50.78;99284.75;4470973;32;33767;-76
2021/12/27 17:45:40;;;;;;;65.05;30.90;;;;;;;2.91;50.36;99281.28;4460325;31;35222;-76
2021/12/27 17:48:26;;;;;;;62.35;29.30;;;;;;;3.11;49.70;99294.03;4471651;32;34626;-76
2021/12/27 17:51:13;;;;;;;62.80;29.87;;;;;;;3.19;48.66;99284.56;4459331;32;34552;-76
2021/12/27 17:54:00;;;;;;;56.50;28.20;;;;;;;2.74;49.96;99296.97;4450877;32;34130;-76
2021/12/27 17:56:47;;;;;;;55.65;26.55;;;;;;;2.60;52.03;99296.66;4476244;31;34557;-76
2021/12/27 17:59:34;;;;;;;59.95;27.83;;;;;;;2.54;52.21;99303.12;4470238;32;34882;-76
2021/12/27 18:02:20;;;;;;;55.83;26.27;;;;;;;2.01;54.19;99307.78;4468971;31;36810;-76
2021/12/27 18:05:07;;;;;;;55.55;26.70;;;;;;;1.67;55.01;99310.03;4467782;32;34145;-76
2021/12/27 18:07:54;;;;;;;40.47;19.58;;;;;;;1.32;54.86;99312.22;4457671;31;35420;-76
2021/12/27 18:10:40;;;;;;;33.30;17.15;;;;;;;1.53;54.59;99309.66;4476059;32;35686;-76
2021/12/27 18:13:27;;;;;;;34.65;17.77;;;;;;;1.34;54.85;99328.16;4476610;31;35495;-76
2021/12/27 18:16:14;;;;;;;37.03;18.83;;;;;;;2.10;52.38;99318.91;4468902;32;34603;-76